Portada
METAR-TAF:

METAR-TAF

Aeroports :

Maragha, Iran

latitud: 37-20-55N, longitud: 046-07-35E, altitud: 1340 m

Observació

L'informe es va fer fa 1 hora i 1 minuts, a les 14:00 UTC
Vent 6 kt del Oest
Temperatura 35°C
Humitat 23%
Pressió 1009 hPa
Visibilitat 10 km o més
Escasses núvols a una alçada de 3500 ft

METAR: OITM 161400Z 27006KT 9999 FEW035 35/11 Q1009

Hora: 19:31 (15:01 UTC)


TAF: manca

Observacions i pronòstics meteorològics de més de 4000 aeroports (METAR i TAF).

Les estacions disponibles són els punts grocs i vermells al mapa.

Posi el ratolí al punt desitjat per veure el nom de l'estació.

Feu clic per veure les observacions i els pronòstics meteorològics.

Per canviar el mapa: feu clic els botons verds amb una creu de color negre per apropar; al botó verd amb un guió per allunyar la imatge; o en les fletxes verdes per a mapes adjacents.


METAR-TAF: